createdAt,value
2022-10-06T01:35:08.510Z,88.82
2022-10-06T02:54:15.112Z,89.07
2022-10-06T04:14:39.678Z,90.34
2022-10-06T04:16:01.518Z,90.58
2022-10-06T04:17:07.506Z,90.35
2022-10-06T04:18:14.854Z,90.32
2022-10-06T04:19:19.198Z,90.24
2022-10-06T04:20:27.877Z,90.61
2022-10-06T04:21:43.834Z,90.47
2022-10-06T04:22:54.938Z,90.76
2022-10-06T04:24:01.856Z,90.95
2022-10-06T04:27:24.977Z,90.29
2022-10-06T04:29:02.670Z,91.03
2022-10-06T04:30:07.500Z,90.93
2022-10-06T04:31:39.393Z,90.61
2022-10-06T04:32:46.802Z,90.82
2022-10-06T04:33:52.948Z,90.84
2022-10-06T04:35:01.974Z,91.11
2022-10-06T04:36:08.354Z,90.63
2022-10-06T04:37:13.098Z,91.09
2022-10-06T04:38:17.599Z,91.43
2022-10-06T04:39:22.369Z,91.40
2022-10-06T04:40:26.395Z,90.94
2022-10-06T04:43:06.843Z,91.25
2022-10-06T04:44:10.617Z,91.32
2022-10-06T04:45:16.031Z,91.02
2022-10-06T04:46:42.299Z,90.97
2022-10-06T04:47:50.301Z,91.00
2022-10-06T04:48:55.099Z,90.95
2022-10-06T04:50:02.849Z,90.91
2022-10-06T04:51:08.745Z,90.95
2022-10-06T04:52:13.527Z,90.76
2022-10-06T04:53:18.321Z,91.26
2022-10-06T04:54:30.044Z,91.44
2022-10-06T04:55:37.467Z,91.60
2022-10-06T04:56:48.601Z,91.60
2022-10-06T04:57:56.236Z,91.87
2022-10-06T04:59:03.894Z,91.93
2022-10-06T05:00:27.136Z,91.90
2022-10-06T05:01:35.348Z,91.98
2022-10-06T05:02:42.289Z,92.06
2022-10-06T05:03:48.080Z,92.00
2022-10-06T05:04:59.258Z,92.29
2022-10-06T05:06:28.357Z,92.67
2022-10-06T05:07:33.822Z,92.84
2022-10-06T05:10:16.616Z,92.47
2022-10-06T05:11:33.580Z,92.57
2022-10-06T05:14:34.994Z,92.99
2022-10-06T05:15:56.954Z,92.97
2022-10-06T05:17:07.687Z,93.13
2022-10-06T05:18:38.360Z,93.25
2022-10-06T05:20:19.880Z,93.41
2022-10-06T05:29:45.336Z,95.72
2022-10-06T05:38:59.021Z,96.43
2022-10-06T05:40:19.638Z,95.80
2022-10-06T05:45:32.295Z,96.91
2022-10-06T05:49:00.519Z,97.33
2022-10-06T05:50:15.102Z,97.75
2022-10-06T06:05:33.867Z,97.79
2022-10-06T06:22:57.107Z,100.00
2022-10-06T06:26:47.618Z,99.32
2022-10-06T06:28:05.357Z,100.00
2022-10-06T06:29:14.346Z,100.00
2022-10-06T06:30:44.715Z,99.32
2022-10-06T06:31:53.586Z,97.72
2022-10-06T06:34:35.114Z,96.58
2022-10-06T06:38:35.207Z,95.39
2022-10-06T06:39:41.917Z,95.08
2022-10-06T06:40:52.081Z,95.33
2022-10-06T06:42:05.170Z,94.81
2022-10-06T06:43:48.333Z,94.37
2022-10-06T06:45:15.203Z,93.90
2022-10-06T06:46:54.521Z,93.69
2022-10-06T06:48:30.419Z,93.62
2022-10-06T06:49:36.196Z,93.76
2022-10-06T06:51:01.208Z,94.36
2022-10-06T06:52:09.087Z,93.73
2022-10-06T06:53:17.616Z,93.54
2022-10-06T06:54:25.185Z,92.69
2022-10-06T06:55:37.247Z,92.04
2022-10-06T06:56:44.856Z,91.41
2022-10-06T06:57:49.931Z,90.63
2022-10-06T06:58:54.960Z,90.36
2022-10-06T07:00:02.733Z,90.09
2022-10-06T07:01:14.060Z,89.74
2022-10-06T07:02:19.675Z,90.43
2022-10-06T07:03:52.589Z,90.92
2022-10-06T07:04:50.371Z,91.40
2022-10-06T07:06:09.511Z,90.02
2022-10-06T07:07:14.677Z,90.04
2022-10-06T07:08:20.948Z,88.74
2022-10-06T07:09:26.224Z,88.81
2022-10-06T07:10:36.464Z,89.09
2022-10-06T07:11:42.441Z,89.06
2022-10-06T07:12:50.389Z,88.85
2022-10-06T07:13:55.970Z,88.99
2022-10-06T07:15:17.277Z,87.61
2022-10-06T07:16:46.806Z,87.65
2022-10-06T07:18:13.373Z,87.25
2022-10-06T07:19:36.034Z,88.09
2022-10-06T07:20:57.675Z,87.85
2022-10-06T07:22:23.886Z,86.86
2022-10-06T07:23:45.313Z,86.76
2022-10-06T07:25:11.956Z,86.24
2022-10-06T07:26:24.838Z,85.58
2022-10-06T07:27:29.029Z,84.39
2022-10-06T07:28:33.319Z,84.11
2022-10-06T07:29:37.397Z,83.42
2022-10-06T07:30:41.646Z,83.03
2022-10-06T07:31:50.152Z,82.08
2022-10-06T07:32:55.418Z,82.34
2022-10-06T07:34:00.745Z,82.56
2022-10-06T07:35:06.573Z,82.47
2022-10-06T07:36:11.820Z,82.66
2022-10-06T07:37:17.722Z,82.41
2022-10-06T07:38:26.226Z,81.57
2022-10-06T07:39:32.207Z,81.16
2022-10-06T07:40:40.222Z,81.08
2022-10-06T07:41:50.452Z,80.73
2022-10-06T07:42:54.746Z,80.19
2022-10-06T07:44:07.987Z,80.15
2022-10-06T07:45:36.363Z,80.50
2022-10-06T07:46:40.683Z,80.71
2022-10-06T07:47:58.931Z,80.82
2022-10-06T07:49:03.405Z,81.08
2022-10-06T07:50:08.621Z,80.45
2022-10-06T07:51:15.128Z,80.41
2022-10-06T07:52:22.405Z,80.17
2022-10-06T07:53:29.235Z,79.30
2022-10-06T07:54:40.214Z,78.49
2022-10-06T07:56:06.577Z,78.78
2022-10-06T07:57:16.189Z,78.56
2022-10-06T07:58:24.429Z,77.91
2022-10-06T07:59:28.783Z,77.63
2022-10-06T08:00:35.380Z,77.57
2022-10-06T08:01:41.049Z,77.01
2022-10-06T08:02:44.835Z,76.82
2022-10-06T08:03:50.885Z,76.53
2022-10-06T08:04:54.000Z,76.00
2022-10-06T08:06:00.307Z,76.21
2022-10-06T08:07:04.774Z,76.37
2022-10-06T08:08:10.436Z,75.84
2022-10-06T08:09:14.937Z,75.85
2022-10-06T08:10:18.878Z,75.75
2022-10-06T08:11:23.577Z,75.26
2022-10-06T08:12:37.729Z,75.32
2022-10-06T08:13:45.404Z,75.03
2022-10-06T08:14:49.237Z,75.20
2022-10-06T08:15:57.721Z,75.09
2022-10-06T08:17:02.845Z,75.20
2022-10-06T08:18:21.301Z,74.54
2022-10-06T08:19:25.892Z,74.21
2022-10-06T08:20:29.266Z,74.40
2022-10-06T08:21:35.212Z,73.98
2022-10-06T08:22:41.444Z,74.04
2022-10-06T08:23:47.857Z,73.86
2022-10-06T08:25:05.323Z,73.56
2022-10-06T08:26:11.720Z,73.23
2022-10-06T08:27:17.344Z,73.06
2022-10-06T08:28:24.760Z,73.72
2022-10-06T08:29:45.166Z,73.43
2022-10-06T08:30:51.726Z,73.92
2022-10-06T08:31:57.544Z,73.91
2022-10-06T08:33:02.320Z,73.56
2022-10-06T08:34:23.321Z,73.44
2022-10-06T08:35:55.644Z,73.57
2022-10-06T08:37:19.244Z,73.34
2022-10-06T08:38:25.305Z,73.35
2022-10-06T08:39:32.485Z,73.05
2022-10-06T08:40:37.246Z,72.32
2022-10-06T08:41:43.551Z,72.23
2022-10-06T08:42:53.083Z,71.49
2022-10-06T08:45:48.627Z,72.29
2022-10-06T08:46:56.416Z,72.10
2022-10-06T08:48:03.047Z,72.34
2022-10-06T08:49:07.735Z,72.16
2022-10-06T08:50:18.538Z,71.93
2022-10-06T08:53:16.384Z,70.23
2022-10-06T08:54:38.605Z,70.62
2022-10-06T08:55:48.458Z,70.92
2022-10-06T08:57:00.371Z,70.75
2022-10-06T08:58:29.514Z,70.79
2022-10-06T08:59:38.528Z,71.09
2022-10-06T09:00:58.391Z,71.16
2022-10-06T09:02:08.516Z,71.12
2022-10-06T09:03:20.451Z,71.20
2022-10-06T09:04:29.004Z,71.12
2022-10-06T09:05:35.022Z,71.24
2022-10-06T09:06:50.607Z,70.80
2022-10-06T09:08:05.757Z,70.58
2022-10-06T09:09:23.298Z,70.71
2022-10-06T09:10:42.487Z,70.84
2022-10-06T09:11:55.587Z,70.89
2022-10-06T09:13:05.325Z,70.83
2022-10-06T09:15:47.151Z,71.01
2022-10-06T09:17:00.923Z,70.73
2022-10-06T09:18:11.427Z,71.18
2022-10-06T09:19:23.597Z,70.93
2022-10-06T09:20:33.083Z,71.10
2022-10-06T09:21:39.708Z,70.78
2022-10-06T09:22:44.556Z,71.18
2022-10-06T09:23:53.703Z,71.41
2022-10-06T09:25:01.143Z,71.25
2022-10-06T09:26:06.497Z,71.27
2022-10-06T09:27:24.485Z,70.85
2022-10-06T09:28:30.904Z,71.11
2022-10-06T09:29:35.225Z,70.79
2022-10-06T09:30:39.545Z,71.26
2022-10-06T09:31:49.101Z,70.93
2022-10-06T09:32:59.236Z,70.55
2022-10-06T09:34:06.075Z,70.67
2022-10-06T09:35:19.318Z,70.76
2022-10-06T09:36:24.474Z,70.78
2022-10-06T09:37:29.252Z,70.08
2022-10-06T09:38:57.851Z,69.77
2022-10-06T09:40:47.658Z,69.72
2022-10-06T09:41:59.128Z,70.28
2022-10-06T09:43:22.066Z,70.66
2022-10-06T09:44:28.300Z,70.84
2022-10-06T09:47:51.387Z,70.64
2022-10-06T09:49:07.657Z,70.17
2022-10-06T09:50:25.945Z,70.00
2022-10-06T09:51:33.943Z,70.13
2022-10-06T09:52:38.355Z,70.57
2022-10-06T09:53:42.821Z,70.58
2022-10-06T09:54:45.898Z,70.35
2022-10-06T09:56:05.227Z,70.29
2022-10-06T09:57:16.517Z,69.79
2022-10-06T09:58:22.889Z,69.77
2022-10-06T09:59:35.130Z,69.24
2022-10-06T10:00:51.829Z,69.36
2022-10-06T10:01:58.199Z,69.80
2022-10-06T10:03:04.648Z,69.72
2022-10-06T10:04:21.098Z,69.69
2022-10-06T10:05:25.754Z,69.70
2022-10-06T10:06:36.113Z,69.38
2022-10-06T10:07:53.558Z,69.36
2022-10-06T10:09:27.342Z,68.65
2022-10-06T10:12:25.544Z,68.87
2022-10-06T10:13:29.860Z,68.65
2022-10-06T10:14:38.371Z,68.61
2022-10-06T10:15:53.982Z,68.58
2022-10-06T10:16:58.236Z,68.61
2022-10-06T10:18:04.416Z,68.74
2022-10-06T10:19:29.656Z,68.14
2022-10-06T10:20:40.634Z,68.37
2022-10-06T10:21:46.484Z,68.45
2022-10-06T10:22:54.196Z,68.59
2022-10-06T10:23:59.486Z,68.33
2022-10-06T10:25:16.806Z,68.43
2022-10-06T10:26:28.785Z,68.04
2022-10-06T10:27:40.233Z,68.07
2022-10-06T10:29:22.885Z,67.50
2022-10-06T10:30:33.609Z,67.96
2022-10-06T10:31:49.442Z,66.97
2022-10-06T10:33:03.674Z,67.21
2022-10-06T10:34:23.147Z,67.09
2022-10-06T10:37:28.873Z,67.13
2022-10-06T10:38:34.726Z,67.51
2022-10-06T10:39:45.495Z,67.50
2022-10-06T10:40:51.878Z,66.58
2022-10-06T10:41:58.850Z,66.19
2022-10-06T10:43:21.346Z,65.34
2022-10-06T10:44:29.287Z,65.26
2022-10-06T10:45:35.905Z,65.56
2022-10-06T10:46:45.136Z,65.44
2022-10-06T10:47:51.160Z,64.94
2022-10-06T10:48:59.946Z,65.03
2022-10-06T10:50:12.673Z,64.55
2022-10-06T10:51:26.323Z,64.90
2022-10-06T10:53:02.343Z,64.69
2022-10-06T10:54:12.845Z,64.08
2022-10-06T10:57:26.954Z,63.71
2022-10-06T10:58:40.566Z,63.71
2022-10-06T11:00:00.777Z,63.66
2022-10-06T11:01:21.763Z,63.68
2022-10-06T11:02:42.788Z,63.96
2022-10-06T11:05:36.983Z,62.15
2022-10-06T11:07:00.536Z,62.37
2022-10-06T11:08:51.145Z,62.10
2022-10-06T11:10:00.006Z,62.27
2022-10-06T11:11:16.150Z,62.19
2022-10-06T11:12:29.537Z,62.45
2022-10-06T11:13:39.849Z,62.37
2022-10-06T11:15:02.870Z,61.81
2022-10-06T11:16:20.675Z,62.27
2022-10-06T11:17:52.418Z,60.16
2022-10-06T11:19:12.337Z,61.82
2022-10-06T11:20:38.786Z,61.22
2022-10-06T11:21:45.719Z,62.07
2022-10-06T11:22:55.795Z,62.13
2022-10-06T11:24:15.077Z,61.68
2022-10-06T11:25:26.979Z,62.24
2022-10-06T11:26:50.494Z,61.56
2022-10-06T11:28:03.989Z,62.17
2022-10-06T11:29:29.597Z,62.28
2022-10-06T11:30:42.135Z,62.35
2022-10-06T11:32:09.676Z,62.32
2022-10-06T11:33:27.505Z,63.03
2022-10-06T11:34:35.982Z,62.74
2022-10-06T11:35:49.072Z,62.62
2022-10-06T11:37:10.329Z,62.33
2022-10-06T11:41:10.553Z,63.55
2022-10-06T11:48:08.335Z,62.36
2022-10-06T11:49:53.206Z,63.19
2022-10-06T11:50:59.502Z,63.43
2022-10-06T11:53:01.520Z,63.12
2022-10-06T11:56:43.388Z,63.21
2022-10-06T11:58:41.876Z,63.04
2022-10-06T11:59:49.646Z,64.14
2022-10-06T12:01:44.316Z,63.55
2022-10-06T12:04:24.778Z,64.09
2022-10-06T12:05:55.712Z,64.55
2022-10-06T12:07:13.118Z,65.01
2022-10-06T12:11:50.954Z,63.88
2022-10-06T12:14:01.655Z,63.40
2022-10-06T12:18:31.266Z,62.22
2022-10-06T12:19:43.718Z,61.98
2022-10-06T12:20:54.735Z,61.15
2022-10-06T12:22:03.965Z,60.47
2022-10-06T12:23:18.761Z,60.45
2022-10-06T12:24:34.907Z,59.88
2022-10-06T12:25:45.774Z,60.06
2022-10-06T12:27:02.042Z,59.94
2022-10-06T12:28:11.733Z,59.59
2022-10-06T12:29:28.063Z,59.49
2022-10-06T12:30:35.821Z,60.00
2022-10-06T12:31:46.616Z,58.87
2022-10-06T12:32:54.036Z,59.50
2022-10-06T12:34:02.126Z,59.84
2022-10-06T12:35:24.999Z,59.71
2022-10-06T12:36:31.813Z,60.08
2022-10-06T12:37:57.716Z,59.99
2022-10-06T12:39:24.267Z,60.57
2022-10-06T12:40:51.878Z,60.70
2022-10-06T12:43:39.981Z,59.99
2022-10-06T12:45:03.494Z,59.85
2022-10-06T12:46:56.175Z,58.09
2022-10-06T12:48:27.116Z,59.68
2022-10-06T12:50:49.620Z,59.37
2022-10-06T12:52:11.976Z,60.11
2022-10-06T12:53:25.782Z,60.38
2022-10-06T12:56:32.098Z,59.97
2022-10-06T12:57:57.099Z,60.35
2022-10-06T13:00:01.997Z,59.53
2022-10-06T13:03:39.217Z,61.45
2022-10-06T13:04:51.264Z,61.55
2022-10-06T13:06:00.447Z,61.23
2022-10-06T13:07:31.923Z,61.57
2022-10-06T13:11:52.961Z,61.42
2022-10-06T13:13:18.555Z,61.85
2022-10-06T13:15:21.014Z,62.96
2022-10-06T13:16:50.836Z,63.08
2022-10-06T13:17:55.762Z,62.37
2022-10-06T13:19:29.598Z,62.23
2022-10-06T13:21:35.306Z,61.93
2022-10-06T13:26:35.294Z,61.94
2022-10-06T13:27:57.772Z,61.28
2022-10-06T13:29:02.870Z,60.75
2022-10-06T13:30:39.037Z,60.14
2022-10-06T13:34:35.065Z,61.53
2022-10-06T13:36:09.447Z,61.76
2022-10-06T13:37:17.582Z,61.94
2022-10-06T13:38:26.603Z,61.98
2022-10-06T13:39:35.484Z,62.12
2022-10-06T13:40:44.489Z,62.62
2022-10-06T13:42:18.805Z,62.94
2022-10-06T13:43:41.609Z,63.13
2022-10-06T13:45:34.942Z,63.63
2022-10-06T13:50:18.768Z,63.86
2022-10-06T13:51:30.942Z,63.72
2022-10-06T13:52:59.755Z,63.58
2022-10-06T13:54:26.013Z,62.95
2022-10-06T13:55:34.170Z,63.01
2022-10-06T13:56:56.214Z,62.67
2022-10-06T13:58:14.506Z,62.16
2022-10-06T13:59:34.474Z,61.90
2022-10-06T14:00:56.482Z,61.68
2022-10-06T14:02:47.156Z,61.90
2022-10-06T14:04:29.806Z,62.31
2022-10-06T14:05:36.823Z,62.40
2022-10-06T14:08:59.355Z,62.72
2022-10-06T14:10:23.837Z,62.59
2022-10-06T14:11:48.947Z,62.59
2022-10-06T14:14:01.218Z,62.51
2022-10-06T14:15:57.816Z,63.08
2022-10-06T14:17:24.116Z,63.05
2022-10-06T14:19:55.777Z,63.34
2022-10-06T14:21:25.004Z,63.52
2022-10-06T14:26:01.725Z,64.23
2022-10-06T14:28:07.238Z,64.54
2022-10-06T14:37:30.126Z,66.17
2022-10-06T14:39:57.271Z,66.50
2022-10-06T14:48:32.833Z,66.96
2022-10-06T14:55:52.856Z,67.64
2022-10-06T15:01:18.282Z,68.16
2022-10-06T15:02:41.688Z,68.46
2022-10-06T15:03:59.513Z,68.71
2022-10-06T15:10:32.931Z,69.53
2022-10-06T15:14:02.806Z,69.00
2022-10-06T15:15:19.451Z,68.93
2022-10-06T15:18:38.397Z,69.38
2022-10-06T15:20:19.518Z,69.73
2022-10-06T15:21:25.613Z,70.00
2022-10-06T15:22:36.207Z,70.32
2022-10-06T15:24:05.594Z,70.50
2022-10-06T15:25:30.595Z,70.23
2022-10-06T15:32:41.918Z,70.22
2022-10-06T15:34:33.615Z,70.50
2022-10-06T15:37:04.419Z,71.34
2022-10-06T15:38:48.205Z,71.21
2022-10-06T15:41:03.573Z,71.39
2022-10-06T15:46:03.736Z,72.54
2022-10-06T15:48:06.359Z,72.73
2022-10-06T15:50:20.884Z,73.06
2022-10-06T15:55:16.214Z,74.32
2022-10-06T15:56:37.035Z,74.78
2022-10-06T15:59:16.907Z,75.10
2022-10-06T16:00:27.327Z,74.88
2022-10-06T16:05:49.559Z,74.65
2022-10-06T16:09:06.997Z,75.02
2022-10-06T16:10:53.188Z,75.23
2022-10-06T16:14:27.229Z,75.89
2022-10-06T16:15:56.441Z,75.76
2022-10-06T16:17:16.392Z,76.48
2022-10-06T16:18:40.359Z,76.50
2022-10-06T16:19:54.509Z,76.77
2022-10-06T16:21:43.178Z,77.21
2022-10-06T16:23:00.922Z,77.16
2022-10-06T16:24:11.858Z,77.67
2022-10-06T16:25:20.241Z,77.27
2022-10-06T16:26:27.463Z,78.03
2022-10-06T16:27:46.373Z,77.83
2022-10-06T16:29:05.335Z,77.72
2022-10-06T16:30:18.830Z,77.99
2022-10-06T16:31:45.100Z,77.66
2022-10-06T16:33:16.614Z,77.51
2022-10-06T16:34:21.808Z,77.52
2022-10-06T16:43:32.344Z,77.00
2022-10-06T16:45:00.876Z,77.15
2022-10-06T18:00:44.571Z,82.44
2022-10-06T20:47:18.519Z,86.65
2022-10-06T20:55:40.594Z,86.49
2022-10-06T21:42:04.016Z,87.70
